Time;durP1;ratioP1;P1;durP2;ratioP2;P2;SDS_P1;SDS_P2;PMS_P1;PMS_P2;Temp;Humidity;BMP_temperature;BMP_pressure;BME280_temperature;BME280_humidity;BME280_pressure;Samples;Min_cycle;Max_cycle;Signal;HPM_P1;HPM_P2
2023/03/14 00:00:17;;;;;;;32.90;12.43;;;;;;;;;;5054769;28;20483;-64
2023/03/14 00:02:43;;;;;;;14.60;8.10;;;;;;;;;;5054541;28;20455;-64
2023/03/14 00:05:09;;;;;;;11.25;7.30;;;;;;;;;;5054631;28;20035;-71
2023/03/14 00:07:36;;;;;;;15.25;7.40;;;;;;;;;;5054694;28;20033;-70
2023/03/14 00:10:13;;;;;;;20.85;9.27;;;;;;;;;;5054516;28;20068;-62
2023/03/14 00:12:38;;;;;;;27.27;13.50;;;;;;;;;;5054631;28;20029;-62
2023/03/14 00:15:06;;;;;;;30.05;12.93;;;;;;;;;;5054332;28;20041;-63
2023/03/14 00:17:32;;;;;;;19.35;9.68;;;;;;;;;;5054158;28;20037;-63
2023/03/14 00:20:03;;;;;;;15.13;9.60;;;;;;;;;;5054491;28;20070;-69
2023/03/14 00:22:29;;;;;;;16.15;9.15;;;;;;;;;;5049861;28;20482;-62
2023/03/14 00:24:54;;;;;;;10.60;7.70;;;;;;;;;;5036316;28;20027;-63
2023/03/14 00:27:19;;;;;;;19.67;9.25;;;;;;;;;;5054067;28;20025;-63
2023/03/14 00:29:45;;;;;;;13.73;6.60;;;;;;;;;;5054430;28;20391;-63
2023/03/14 00:32:10;;;;;;;12.65;6.95;;;;;;;;;;5036523;28;20028;-63
2023/03/14 00:34:39;;;;;;;12.68;6.15;;;;;;;;;;5036368;28;20047;-62
2023/03/14 00:37:05;;;;;;;11.63;6.00;;;;;;;;;;5054269;28;20075;-62
2023/03/14 00:39:30;;;;;;;13.32;7.13;;;;;;;;;;5036233;28;20060;-62
2023/03/14 00:41:56;;;;;;;14.90;7.78;;;;;;;;;;5036253;28;20071;-62
2023/03/14 00:44:21;;;;;;;16.23;7.93;;;;;;;;;;5035944;28;20037;-63
2023/03/14 00:46:46;;;;;;;34.72;11.35;;;;;;;;;;5036135;28;20031;-62
2023/03/14 00:49:12;;;;;;;26.90;9.95;;;;;;;;;;5053947;28;20119;-62
2023/03/14 00:51:37;;;;;;;34.15;10.73;;;;;;;;;;5054082;28;20021;-63
2023/03/14 00:54:03;;;;;;;17.73;7.85;;;;;;;;;;5051363;28;20525;-62
2023/03/14 00:56:28;;;;;;;16.83;7.05;;;;;;;;;;5053965;28;20421;-62
2023/03/14 00:58:55;;;;;;;13.25;6.05;;;;;;;;;;5053999;28;20348;-63
2023/03/14 01:01:20;;;;;;;9.98;5.63;;;;;;;;;;5053692;28;20044;-63
2023/03/14 01:03:46;;;;;;;9.48;5.45;;;;;;;;;;5035520;28;20037;-63
2023/03/14 01:06:15;;;;;;;10.02;5.80;;;;;;;;;;5055275;28;20075;-62
2023/03/14 01:08:42;;;;;;;7.45;4.43;;;;;;;;;;5052233;28;20475;-62
2023/03/14 01:11:15;;;;;;;7.30;5.07;;;;;;;;;;5038536;28;20036;-62
2023/03/14 01:13:41;;;;;;;8.27;4.88;;;;;;;;;;5053329;28;20445;-63
2023/03/14 01:16:07;;;;;;;16.08;7.05;;;;;;;;;;5052176;28;20041;-63
2023/03/14 01:18:36;;;;;;;14.98;6.55;;;;;;;;;;5053480;28;20033;-63
2023/03/14 01:21:02;;;;;;;14.55;6.35;;;;;;;;;;5052914;28;20017;-63
2023/03/14 01:23:28;;;;;;;6.15;3.90;;;;;;;;;;5053317;28;20362;-63
2023/03/14 01:25:54;;;;;;;10.95;7.13;;;;;;;;;;5035238;28;20021;-63
2023/03/14 01:28:20;;;;;;;32.15;10.18;;;;;;;;;;5034464;28;20020;-63
2023/03/14 01:30:45;;;;;;;54.03;14.45;;;;;;;;;;5051806;28;20033;-63
2023/03/14 01:33:14;;;;;;;45.70;13.18;;;;;;;;;;5051585;28;20029;-63
2023/03/14 01:35:41;;;;;;;45.38;14.93;;;;;;;;;;5051559;28;20090;-63
2023/03/14 01:38:07;;;;;;;56.17;16.20;;;;;;;;;;5051553;28;20032;-62
2023/03/14 01:40:32;;;;;;;45.40;14.35;;;;;;;;;;5034963;28;20031;-62
2023/03/14 01:43:04;;;;;;;39.63;12.23;;;;;;;;;;5052565;28;20120;-63
2023/03/14 01:45:48;;;;;;;16.52;7.15;;;;;;;;;;5050760;28;20040;-62
2023/03/14 01:48:14;;;;;;;17.10;7.43;;;;;;;;;;5033669;28;20021;-63
2023/03/14 01:50:39;;;;;;;22.80;8.05;;;;;;;;;;5018529;28;20481;-63
2023/03/14 01:53:04;;;;;;;16.25;7.30;;;;;;;;;;5034926;28;20017;-63
2023/03/14 01:55:30;;;;;;;12.27;5.47;;;;;;;;;;5034900;28;20509;-63
2023/03/14 01:58:02;;;;;;;28.30;9.15;;;;;;;;;;5018437;28;20036;-63
2023/03/14 02:00:28;;;;;;;15.90;7.40;;;;;;;;;;5032793;28;20035;-70
2023/03/14 02:02:56;;;;;;;18.60;7.70;;;;;;;;;;5034716;28;20374;-69
2023/03/14 02:05:23;;;;;;;38.03;15.75;;;;;;;;;;5034723;28;20033;-62
2023/03/14 02:08:02;;;;;;;12.40;7.22;;;;;;;;;;5034629;28;20029;-62
2023/03/14 02:10:34;;;;;;;10.05;5.18;;;;;;;;;;5051034;28;20478;-62
2023/03/14 02:13:02;;;;;;;8.65;5.60;;;;;;;;;;5051098;28;20066;-62
2023/03/14 02:15:40;;;;;;;7.85;4.68;;;;;;;;;;5052122;28;20445;-68
2023/03/14 02:18:13;;;;;;;8.45;5.25;;;;;;;;;;5034338;28;20032;-68
2023/03/14 02:21:13;;;;;;;;;;;;;;;;;;5034798;28;20055;-62
2023/03/14 02:23:38;;;;;;;14.23;6.67;;;;;;;;;;5018001;28;19916;-62
2023/03/14 02:26:08;;;;;;;12.57;6.50;;;;;;;;;;5031547;28;20279;-62
2023/03/14 02:28:33;;;;;;;13.80;6.68;;;;;;;;;;5052243;28;20040;-62
2023/03/14 02:31:00;;;;;;;15.63;7.55;;;;;;;;;;5034216;28;20029;-62
2023/03/14 02:33:26;;;;;;;7.40;5.40;;;;;;;;;;5034298;28;20098;-63
2023/03/14 02:36:04;;;;;;;6.78;5.10;;;;;;;;;;5050817;28;20364;-63
2023/03/14 02:38:49;;;;;;;7.28;4.78;;;;;;;;;;5032564;28;20029;-62
2023/03/14 02:41:14;;;;;;;8.35;4.70;;;;;;;;;;5032825;28;20490;-63
2023/03/14 02:43:45;;;;;;;8.35;4.28;;;;;;;;;;5034229;28;20024;-62
2023/03/14 02:46:12;;;;;;;5.38;3.90;;;;;;;;;;5034099;28;20039;-63
2023/03/14 02:48:45;;;;;;;6.35;3.90;;;;;;;;;;5050651;28;20029;-69
2023/03/14 02:51:11;;;;;;;7.65;4.28;;;;;;;;;;5022497;28;20029;-69
2023/03/14 02:53:37;;;;;;;7.43;4.18;;;;;;;;;;5023736;28;20353;-63
2023/03/14 02:56:07;;;;;;;6.63;4.20;;;;;;;;;;5039782;28;20009;-63
2023/03/14 02:58:34;;;;;;;5.93;3.58;;;;;;;;;;5018121;28;20025;-63
2023/03/14 03:01:06;;;;;;;8.68;4.30;;;;;;;;;;5033598;28;20050;-63
2023/03/14 03:03:32;;;;;;;11.27;7.15;;;;;;;;;;5033564;28;20033;-63
2023/03/14 03:05:58;;;;;;;8.18;6.28;;;;;;;;;;5051485;28;20021;-69
2023/03/14 03:08:24;;;;;;;12.70;7.45;;;;;;;;;;5051847;28;20033;-70
2023/03/14 03:10:50;;;;;;;8.75;5.82;;;;;;;;;;5033863;28;20025;-70
2023/03/14 03:13:15;;;;;;;10.10;6.25;;;;;;;;;;5033950;28;20029;-70
2023/03/14 03:15:42;;;;;;;15.43;6.93;;;;;;;;;;5017196;28;20399;-69
2023/03/14 03:18:07;;;;;;;9.55;4.72;;;;;;;;;;5033836;28;20041;-69
2023/03/14 03:20:33;;;;;;;9.15;4.50;;;;;;;;;;5033890;28;20021;-69
2023/03/14 03:22:58;;;;;;;5.93;3.97;;;;;;;;;;5051566;28;20110;-69
2023/03/14 03:25:24;;;;;;;3.53;3.13;;;;;;;;;;5051298;28;20028;-69
2023/03/14 03:27:49;;;;;;;3.33;3.03;;;;;;;;;;5033263;28;20036;-69
2023/03/14 03:30:17;;;;;;;5.63;3.92;;;;;;;;;;5033429;28;20021;-69
2023/03/14 03:32:43;;;;;;;14.55;6.78;;;;;;;;;;5033283;28;20021;-69
2023/03/14 03:35:08;;;;;;;9.30;4.80;;;;;;;;;;5033332;28;20094;-69
2023/03/14 03:37:37;;;;;;;7.22;4.25;;;;;;;;;;5033609;28;20108;-69
2023/03/14 03:40:05;;;;;;;10.88;4.65;;;;;;;;;;5049980;28;20025;-69
2023/03/14 03:42:31;;;;;;;7.30;4.25;;;;;;;;;;5033216;28;20113;-69
2023/03/14 03:44:56;;;;;;;6.07;4.03;;;;;;;;;;5049776;28;20029;-69
2023/03/14 03:47:23;;;;;;;8.13;4.10;;;;;;;;;;5033331;28;20794;-69
2023/03/14 03:49:49;;;;;;;8.20;4.07;;;;;;;;;;5051051;28;20090;-69
2023/03/14 03:52:14;;;;;;;9.35;4.70;;;;;;;;;;5035123;28;20492;-63
2023/03/14 03:54:40;;;;;;;7.72;4.57;;;;;;;;;;5037216;28;20115;-63
2023/03/14 03:57:05;;;;;;;8.75;3.90;;;;;;;;;;5036736;28;20029;-63
2023/03/14 03:59:30;;;;;;;5.78;3.70;;;;;;;;;;5036768;28;20025;-63
2023/03/14 04:01:56;;;;;;;4.47;3.65;;;;;;;;;;5036888;28;20029;-63
2023/03/14 04:04:22;;;;;;;3.70;3.30;;;;;;;;;;5054447;28;20056;-63
2023/03/14 04:06:47;;;;;;;5.25;3.40;;;;;;;;;;5054791;28;20052;-62
2023/03/14 04:09:13;;;;;;;4.25;3.00;;;;;;;;;;5054362;28;20025;-62
2023/03/14 04:12:03;;;;;;;3.08;2.65;;;;;;;;;;5022397;28;20025;-62
2023/03/14 04:14:51;;;;;;;4.32;3.35;;;;;;;;;;5036514;28;20045;-62
2023/03/14 04:17:20;;;;;;;6.88;4.15;;;;;;;;;;5036572;28;20063;-62
2023/03/14 04:19:46;;;;;;;10.10;6.20;;;;;;;;;;5036653;28;20048;-68
2023/03/14 04:22:11;;;;;;;11.68;6.45;;;;;;;;;;5020071;28;20043;-62
2023/03/14 04:24:45;;;;;;;11.75;7.85;;;;;;;;;;5054427;28;20466;-63
2023/03/14 04:27:22;;;;;;;12.75;6.38;;;;;;;;;;5036303;28;20094;-62
2023/03/14 04:29:47;;;;;;;9.48;6.32;;;;;;;;;;5036443;28;20028;-63
2023/03/14 04:32:15;;;;;;;24.52;15.93;;;;;;;;;;5033923;28;20071;-63
2023/03/14 04:34:42;;;;;;;17.70;12.00;;;;;;;;;;5036508;28;20446;-69
2023/03/14 04:37:07;;;;;;;11.50;7.80;;;;;;;;;;5053382;28;20227;-69
2023/03/14 04:39:38;;;;;;;7.50;5.50;;;;;;;;;;5025820;28;20477;-67
2023/03/14 04:42:17;;;;;;;8.30;6.90;;;;;;;;;;5038408;28;20363;-68
2023/03/14 04:44:43;;;;;;;11.77;7.30;;;;;;;;;;5053509;28;20048;-69
2023/03/14 04:47:09;;;;;;;11.15;8.27;;;;;;;;;;5035584;28;20017;-69
2023/03/14 04:49:35;;;;;;;9.95;7.95;;;;;;;;;;5036285;28;20024;-63
2023/03/14 04:52:00;;;;;;;9.30;5.55;;;;;;;;;;5035990;28;20025;-63
2023/03/14 04:54:28;;;;;;;10.30;5.50;;;;;;;;;;5036100;28;20453;-63
2023/03/14 04:56:56;;;;;;;7.45;5.05;;;;;;;;;;5026456;28;20036;-63
2023/03/14 04:59:22;;;;;;;23.90;17.02;;;;;;;;;;5042711;28;20033;-63
2023/03/14 05:01:50;;;;;;;23.65;18.20;;;;;;;;;;5041445;28;20021;-64
2023/03/14 05:04:39;;;;;;;56.38;39.10;;;;;;;;;;5015677;28;20033;-62
2023/03/14 05:07:19;;;;;;;32.92;25.20;;;;;;;;;;5051776;28;20083;-65
2023/03/14 05:09:53;;;;;;;8.77;6.45;;;;;;;;;;5053272;28;20047;-63
2023/03/14 05:12:44;;;;;;;15.45;10.02;;;;;;;;;;5030979;28;20029;-63
2023/03/14 05:15:28;;;;;;;18.38;12.90;;;;;;;;;;5055086;28;20150;-70
2023/03/14 05:18:16;;;;;;;5.22;4.38;;;;;;;;;;5055310;28;20372;-69
2023/03/14 05:21:00;;;;;;;8.32;6.55;;;;;;;;;;5055286;28;20056;-69
2023/03/14 05:23:46;;;;;;;37.25;22.90;;;;;;;;;;5054014;28;20025;-69
2023/03/14 05:26:24;;;;;;;26.50;17.35;;;;;;;;;;5054841;28;20469;-69
2023/03/14 05:29:18;;;;;;;43.65;25.08;;;;;;;;;;5037320;28;20032;-69
2023/03/14 05:32:02;;;;;;;35.28;21.10;;;;;;;;;;5053897;28;20040;-70
2023/03/14 05:34:43;;;;;;;52.13;30.65;;;;;;;;;;5053677;28;20437;-69
2023/03/14 05:37:27;;;;;;;51.45;29.95;;;;;;;;;;5050296;28;20516;-70
2023/03/14 05:40:15;;;;;;;80.43;54.42;;;;;;;;;;5052201;28;20562;-69
2023/03/14 05:43:02;;;;;;;111.47;78.85;;;;;;;;;;5053229;28;20028;-69
2023/03/14 05:45:37;;;;;;;63.70;46.55;;;;;;;;;;5054781;28;20069;-69
2023/03/14 05:48:26;;;;;;;37.60;27.80;;;;;;;;;;5053366;28;20120;-69
2023/03/14 05:51:24;;;;;;;55.47;38.83;;;;;;;;;;5008763;28;20029;-69
2023/03/14 05:54:00;;;;;;;40.53;27.42;;;;;;;;;;5054627;28;20032;-68
2023/03/14 05:56:50;;;;;;;30.98;22.42;;;;;;;;;;5035385;28;20036;-69
2023/03/14 05:59:18;;;;;;;25.40;17.63;;;;;;;;;;5053716;28;20048;-70
2023/03/14 06:02:07;;;;;;;29.10;19.90;;;;;;;;;;5053520;28;20532;-70
2023/03/14 06:04:43;;;;;;;28.65;19.30;;;;;;;;;;5037391;28;20374;-69
2023/03/14 06:07:08;;;;;;;32.10;19.80;;;;;;;;;;5035929;28;20078;-70
2023/03/14 06:09:34;;;;;;;33.60;21.02;;;;;;;;;;5019275;28;20444;-62
2023/03/14 06:12:01;;;;;;;33.63;20.98;;;;;;;;;;5053470;28;20031;-62
2023/03/14 06:14:30;;;;;;;34.05;21.60;;;;;;;;;;5034657;28;20037;-63
2023/03/14 06:16:55;;;;;;;38.00;24.98;;;;;;;;;;5050244;28;20049;-63
2023/03/14 06:19:23;;;;;;;36.00;23.50;;;;;;;;;;5034118;28;20086;-63
2023/03/14 06:21:49;;;;;;;36.28;23.15;;;;;;;;;;5023708;28;20033;-63
2023/03/14 06:24:14;;;;;;;35.25;22.50;;;;;;;;;;5014353;28;20045;-63
2023/03/14 06:26:44;;;;;;;;;;;;;;;;;;5014518;28;20029;-63
2023/03/14 06:29:10;;;;;;;33.30;22.63;;;;;;;;;;5034267;28;19924;-63
2023/03/14 06:31:36;;;;;;;36.03;23.25;;;;;;;;;;5032674;28;20029;-63
2023/03/14 06:34:05;;;;;;;37.47;23.25;;;;;;;;;;5032808;28;20051;-64
2023/03/14 06:36:31;;;;;;;36.10;22.70;;;;;;;;;;5016292;28;20099;-64
2023/03/14 06:38:57;;;;;;;37.30;21.63;;;;;;;;;;5032601;28;20030;-64
2023/03/14 06:41:25;;;;;;;34.22;21.05;;;;;;;;;;5016692;28;20045;-64
2023/03/14 06:43:51;;;;;;;27.00;16.30;;;;;;;;;;5031343;28;20479;-63
2023/03/14 06:46:16;;;;;;;22.00;14.18;;;;;;;;;;5033229;28;20030;-63
2023/03/14 06:48:42;;;;;;;21.05;12.20;;;;;;;;;;5032285;28;20029;-64
2023/03/14 06:51:08;;;;;;;17.70;10.20;;;;;;;;;;5032615;28;20360;-64
2023/03/14 06:53:34;;;;;;;16.77;8.57;;;;;;;;;;5016754;28;20022;-63
2023/03/14 06:56:01;;;;;;;37.50;19.83;;;;;;;;;;5014046;28;20026;-63
2023/03/14 06:58:28;;;;;;;23.90;13.60;;;;;;;;;;5013795;28;20021;-64
2023/03/14 07:00:54;;;;;;;14.00;8.63;;;;;;;;;;5013796;28;20047;-63
2023/03/14 07:03:23;;;;;;;17.30;8.43;;;;;;;;;;5013726;28;20076;-63
2023/03/14 07:05:52;;;;;;;15.15;8.30;;;;;;;;;;4997600;28;20013;-64
2023/03/14 07:08:17;;;;;;;15.30;8.25;;;;;;;;;;5013662;28;20026;-63
2023/03/14 07:10:43;;;;;;;20.05;10.80;;;;;;;;;;5030046;28;20056;-63
2023/03/14 07:13:08;;;;;;;17.20;9.52;;;;;;;;;;5014211;28;20029;-63
2023/03/14 07:15:42;;;;;;;15.35;7.55;;;;;;;;;;5015317;28;20053;-64
2023/03/14 07:18:09;;;;;;;19.33;8.50;;;;;;;;;;4998609;28;20126;-63
2023/03/14 07:20:34;;;;;;;20.38;9.13;;;;;;;;;;5033254;28;20102;-63
2023/03/14 07:23:02;;;;;;;18.90;9.73;;;;;;;;;;5032048;28;20086;-63
2023/03/14 07:25:39;;;;;;;19.33;9.02;;;;;;;;;;5015582;28;20036;-63
2023/03/14 07:28:04;;;;;;;15.82;8.30;;;;;;;;;;5035686;28;20379;-63
2023/03/14 07:30:30;;;;;;;15.05;8.00;;;;;;;;;;5019960;28;20029;-63
2023/03/14 07:32:58;;;;;;;19.83;8.50;;;;;;;;;;5035814;28;20426;-63
2023/03/14 07:35:24;;;;;;;14.70;8.27;;;;;;;;;;5036619;28;20033;-63
2023/03/14 07:37:49;;;;;;;16.27;8.35;;;;;;;;;;5035735;28;20384;-63
2023/03/14 07:40:17;;;;;;;15.85;8.52;;;;;;;;;;5035944;28;20032;-63
2023/03/14 07:42:43;;;;;;;15.98;8.05;;;;;;;;;;5019193;28;20101;-63
2023/03/14 07:45:21;;;;;;;17.73;7.57;;;;;;;;;;5035480;28;20033;-63
2023/03/14 07:47:46;;;;;;;17.23;6.65;;;;;;;;;;5036762;28;20029;-64
2023/03/14 07:50:12;;;;;;;13.27;6.38;;;;;;;;;;5036721;28;20519;-63
2023/03/14 07:52:37;;;;;;;15.70;6.47;;;;;;;;;;5037214;28;20056;-63
2023/03/14 07:55:02;;;;;;;18.75;7.40;;;;;;;;;;5036624;28;20092;-63
2023/03/14 07:57:28;;;;;;;27.08;9.50;;;;;;;;;;5036626;28;20037;-63
2023/03/14 07:59:53;;;;;;;21.23;9.60;;;;;;;;;;5036587;28;20064;-64
2023/03/14 08:02:22;;;;;;;20.67;11.13;;;;;;;;;;5036789;28;20132;-64
2023/03/14 08:04:47;;;;;;;21.23;11.55;;;;;;;;;;5036697;28;20072;-63
2023/03/14 08:07:12;;;;;;;18.38;10.02;;;;;;;;;;5036694;28;20046;-64
2023/03/14 08:09:38;;;;;;;15.80;8.15;;;;;;;;;;5035132;28;20423;-63
2023/03/14 08:12:03;;;;;;;15.60;8.75;;;;;;;;;;5018901;28;20048;-63
2023/03/14 08:14:29;;;;;;;11.13;6.88;;;;;;;;;;5035037;28;20029;-64
2023/03/14 08:16:55;;;;;;;10.77;5.93;;;;;;;;;;5018332;28;20095;-63
2023/03/14 08:19:20;;;;;;;6.53;4.25;;;;;;;;;;5036196;28;20107;-63
2023/03/14 08:21:46;;;;;;;6.95;4.45;;;;;;;;;;5019072;28;20048;-63
2023/03/14 08:24:11;;;;;;;6.38;4.70;;;;;;;;;;5036057;28;20022;-63
2023/03/14 08:26:36;;;;;;;6.60;4.40;;;;;;;;;;5018405;28;20079;-63
2023/03/14 08:29:04;;;;;;;6.75;4.05;;;;;;;;;;5036010;28;20028;-63
2023/03/14 08:31:29;;;;;;;5.53;4.20;;;;;;;;;;5035988;28;20128;-63
2023/03/14 08:33:55;;;;;;;6.18;4.20;;;;;;;;;;5035957;28;20061;-64
2023/03/14 08:36:20;;;;;;;5.50;4.00;;;;;;;;;;5036165;28;20025;-63
2023/03/14 08:38:45;;;;;;;6.10;3.75;;;;;;;;;;5035491;28;20029;-63
2023/03/14 08:41:11;;;;;;;4.75;3.17;;;;;;;;;;5035751;28;20026;-63
2023/03/14 08:43:36;;;;;;;3.88;3.45;;;;;;;;;;5036288;28;20033;-63
2023/03/14 08:46:01;;;;;;;5.10;3.10;;;;;;;;;;5035917;28;20125;-63
2023/03/14 08:48:27;;;;;;;4.50;3.28;;;;;;;;;;5035673;28;20052;-63
2023/03/14 08:50:52;;;;;;;3.83;2.92;;;;;;;;;;5035853;28;20033;-63
2023/03/14 08:53:18;;;;;;;4.50;3.30;;;;;;;;;;5035855;28;20041;-63
2023/03/14 08:55:43;;;;;;;3.20;2.90;;;;;;;;;;5034241;28;20048;-63
2023/03/14 08:58:09;;;;;;;4.00;3.08;;;;;;;;;;5035498;28;20057;-63
2023/03/14 09:00:34;;;;;;;5.30;3.10;;;;;;;;;;5034153;28;20148;-63
2023/03/14 09:03:00;;;;;;;3.95;3.10;;;;;;;;;;5035385;28;20400;-63
2023/03/14 09:05:25;;;;;;;6.05;3.22;;;;;;;;;;5035323;28;20459;-63
2023/03/14 09:07:50;;;;;;;3.67;2.35;;;;;;;;;;5035843;28;20038;-63
2023/03/14 09:10:17;;;;;;;3.00;2.60;;;;;;;;;;5017471;28;20025;-63
2023/03/14 09:12:42;;;;;;;3.42;2.50;;;;;;;;;;5059294;22;20055;-72
2023/03/14 09:15:42;;;;;;;3.28;2.95;;;;;;;;;;5125241;22;20519;-72
2023/03/14 09:18:07;;;;;;;2.95;2.60;;;;;;;;;;5067893;22;20490;-72
2023/03/14 09:20:32;;;;;;;3.72;2.35;;;;;;;;;;5055033;28;20024;-72
2023/03/14 09:22:57;;;;;;;3.33;1.98;;;;;;;;;;5054928;28;20459;-72
2023/03/14 09:25:23;;;;;;;2.35;2.15;;;;;;;;;;5055168;28;20036;-73
2023/03/14 09:27:50;;;;;;;3.22;2.53;;;;;;;;;;5054825;28;20025;-72
2023/03/14 09:30:15;;;;;;;2.65;2.20;;;;;;;;;;5055355;28;20040;-73
2023/03/14 09:32:41;;;;;;;2.65;1.75;;;;;;;;;;5054770;28;20501;-73
2023/03/14 09:35:06;;;;;;;3.08;2.15;;;;;;;;;;5036826;28;20033;-72
2023/03/14 09:37:31;;;;;;;4.32;2.60;;;;;;;;;;5054924;28;20095;-73
2023/03/14 09:39:57;;;;;;;3.47;2.33;;;;;;;;;;5036710;28;20086;-73
2023/03/14 09:42:24;;;;;;;2.17;2.03;;;;;;;;;;5054570;28;20451;-72
2023/03/14 09:44:55;;;;;;;2.55;2.33;;;;;;;;;;5055017;28;20062;-73
2023/03/14 09:47:21;;;;;;;2.28;2.08;;;;;;;;;;5053236;28;20029;-73
2023/03/14 09:49:47;;;;;;;3.03;2.53;;;;;;;;;;5054038;28;20096;-73
2023/03/14 09:52:31;;;;;;;2.60;0.75;;;;;;;;;;5054672;28;20524;-72
2023/03/14 09:54:59;;;;;;;3.70;2.35;;;;;;;;;;5048400;28;20039;-73
2023/03/14 09:57:25;;;;;;;2.60;2.30;;;;;;;;;;5054532;28;20360;-72
2023/03/14 09:59:52;;;;;;;2.40;2.20;;;;;;;;;;5054248;28;20033;-72
2023/03/14 10:02:22;;;;;;;3.83;2.20;;;;;;;;;;5036278;28;20044;-72
2023/03/14 10:04:49;;;;;;;1.70;1.60;;;;;;;;;;5054399;28;20040;-73
2023/03/14 10:07:15;;;;;;;3.17;2.08;;;;;;;;;;5054088;28;20053;-72
2023/03/14 10:09:43;;;;;;;2.33;2.13;;;;;;;;;;5054365;28;20029;-73
2023/03/14 10:12:09;;;;;;;2.55;2.10;;;;;;;;;;5054292;28;20071;-72
2023/03/14 10:14:36;;;;;;;4.55;2.17;;;;;;;;;;5054000;28;20037;-73
2023/03/14 10:17:09;;;;;;;3.38;1.90;;;;;;;;;;5053075;28;20037;-73
2023/03/14 10:19:35;;;;;;;2.45;2.20;;;;;;;;;;5036025;28;20131;-73
2023/03/14 10:22:01;;;;;;;2.70;1.98;;;;;;;;;;5054148;28;20095;-72
2023/03/14 10:24:34;;;;;;;2.35;2.15;;;;;;;;;;5054042;28;20044;-72
2023/03/14 10:27:02;;;;;;;3.50;2.17;;;;;;;;;;5054089;28;20029;-73
2023/03/14 10:29:27;;;;;;;2.50;2.30;;;;;;;;;;5053771;28;20387;-72
2023/03/14 10:31:54;;;;;;;2.80;2.33;;;;;;;;;;5054010;28;20028;-73
2023/03/14 10:34:27;;;;;;;3.15;2.55;;;;;;;;;;5053953;28;20025;-73
2023/03/14 10:36:57;;;;;;;3.05;2.00;;;;;;;;;;5035927;28;20086;-73
2023/03/14 10:39:29;;;;;;;2.63;2.08;;;;;;;;;;5053912;28;20379;-73
2023/03/14 10:42:20;;;;;;;3.05;2.33;;;;;;;;;;5053921;28;20042;-73
2023/03/14 10:44:47;;;;;;;2.92;2.20;;;;;;;;;;5049511;28;20045;-72
2023/03/14 10:47:18;;;;;;;3.03;2.30;;;;;;;;;;5053805;28;20032;-73
2023/03/14 10:49:43;;;;;;;3.35;2.25;;;;;;;;;;5052281;28;20032;-72
2023/03/14 10:52:08;;;;;;;2.85;2.55;;;;;;;;;;5036282;28;20037;-73
2023/03/14 10:54:34;;;;;;;4.55;2.30;;;;;;;;;;5053791;28;20056;-73
2023/03/14 10:57:00;;;;;;;2.30;2.10;;;;;;;;;;5053450;28;20046;-73
2023/03/14 10:59:29;;;;;;;2.30;2.10;;;;;;;;;;5053710;28;20463;-73
2023/03/14 11:01:58;;;;;;;2.58;2.33;;;;;;;;;;5056750;28;20078;-73
2023/03/14 11:04:31;;;;;;;4.37;2.40;;;;;;;;;;5057462;28;20387;-73
2023/03/14 11:07:04;;;;;;;2.78;2.42;;;;;;;;;;5057769;28;20136;-73
2023/03/14 11:09:35;;;;;;;2.53;2.13;;;;;;;;;;5056614;28;20047;-73
2023/03/14 11:12:08;;;;;;;3.75;2.03;;;;;;;;;;5057400;28;20052;-72
2023/03/14 11:14:36;;;;;;;2.20;1.67;;;;;;;;;;5057909;28;20040;-73
2023/03/14 11:17:19;;;;;;;3.50;2.03;;;;;;;;;;5057569;28;20049;-73
2023/03/14 11:19:48;;;;;;;2.38;2.17;;;;;;;;;;5057115;28;20067;-73
2023/03/14 11:22:35;;;;;;;2.75;1.92;;;;;;;;;;5057219;28;20055;-73
2023/03/14 11:25:10;;;;;;;2.35;2.08;;;;;;;;;;5057104;28;20120;-73
2023/03/14 11:27:42;;;;;;;2.38;2.13;;;;;;;;;;5057403;28;20043;-73
2023/03/14 11:30:17;;;;;;;3.30;2.42;;;;;;;;;;5039219;28;20068;-72
2023/03/14 11:32:49;;;;;;;2.45;2.00;;;;;;;;;;5057024;28;20032;-72
2023/03/14 11:35:38;;;;;;;3.88;1.90;;;;;;;;;;5057264;28;20533;-73
2023/03/14 11:38:09;;;;;;;2.83;2.00;;;;;;;;;;5046175;28;20119;-73
2023/03/14 11:40:35;;;;;;;2.58;2.13;;;;;;;;;;5056914;28;20254;-73
2023/03/14 11:43:16;;;;;;;2.83;2.03;;;;;;;;;;5057156;28;20360;-73
2023/03/14 11:45:42;;;;;;;1.88;1.77;;;;;;;;;;5056958;28;20040;-73
2023/03/14 11:48:21;;;;;;;2.63;2.22;;;;;;;;;;5057277;28;20086;-73
2023/03/14 11:50:49;;;;;;;3.63;2.20;;;;;;;;;;5056956;28;20108;-73
2023/03/14 11:53:20;;;;;;;2.17;1.98;;;;;;;;;;5056901;28;20056;-73
2023/03/14 11:55:46;;;;;;;2.50;2.25;;;;;;;;;;5056858;28;20021;-72
2023/03/14 11:58:25;;;;;;;2.25;1.95;;;;;;;;;;5056543;28;20532;-73
2023/03/14 12:00:52;;;;;;;2.28;2.03;;;;;;;;;;5055261;28;20025;-73
2023/03/14 12:03:28;;;;;;;2.85;2.03;;;;;;;;;;5056438;28;20036;-72
2023/03/14 12:05:56;;;;;;;3.67;1.95;;;;;;;;;;5056938;28;20033;-73
2023/03/14 12:08:40;;;;;;;2.83;2.03;;;;;;;;;;5056903;28;20087;-73
2023/03/14 12:11:15;;;;;;;4.90;2.00;;;;;;;;;;5055055;28;20074;-73
2023/03/14 12:13:41;;;;;;;3.22;1.45;;;;;;;;;;5056081;28;20024;-73
2023/03/14 12:16:09;;;;;;;2.88;1.85;;;;;;;;;;5056186;28;20048;-72
2023/03/14 12:18:39;;;;;;;2.90;2.13;;;;;;;;;;5055997;28;20045;-72
2023/03/14 12:21:05;;;;;;;2.78;1.80;;;;;;;;;;5056682;28;20021;-73
2023/03/14 12:23:36;;;;;;;1.58;1.48;;;;;;;;;;5056623;28;20115;-72
2023/03/14 12:26:08;;;;;;;2.25;1.92;;;;;;;;;;5056246;28;20036;-72
2023/03/14 12:28:33;;;;;;;1.70;1.60;;;;;;;;;;5056239;28;20033;-72
2023/03/14 12:31:19;;;;;;;3.42;1.88;;;;;;;;;;5056218;28;20036;-72
2023/03/14 12:33:44;;;;;;;4.70;1.90;;;;;;;;;;5055763;28;20029;-73
2023/03/14 12:36:20;;;;;;;3.38;2.30;;;;;;;;;;5056057;28;20036;-72
2023/03/14 12:38:59;;;;;;;3.92;1.88;;;;;;;;;;5055906;28;20395;-73
2023/03/14 12:41:27;;;;;;;3.60;2.30;;;;;;;;;;5055683;28;20033;-72
2023/03/14 12:43:52;;;;;;;2.83;2.25;;;;;;;;;;5054335;28;20390;-72
2023/03/14 12:46:18;;;;;;;4.60;2.40;;;;;;;;;;5055568;28;20033;-72
2023/03/14 12:48:53;;;;;;;2.25;2.08;;;;;;;;;;5055633;28;20017;-72
2023/03/14 12:51:19;;;;;;;3.38;2.40;;;;;;;;;;5055545;28;20017;-72
2023/03/14 12:54:14;;;;;;;2.70;1.95;;;;;;;;;;5055485;28;20056;-72
2023/03/14 12:56:42;;;;;;;3.35;2.08;;;;;;;;;;5037829;28;20037;-72
2023/03/14 12:59:13;;;;;;;2.45;2.25;;;;;;;;;;5055385;28;20457;-72
2023/03/14 13:01:46;;;;;;;3.45;1.88;;;;;;;;;;5055409;28;20064;-72
2023/03/14 13:04:11;;;;;;;4.72;3.47;;;;;;;;;;5055355;28;20522;-72
2023/03/14 13:06:46;;;;;;;3.92;2.72;;;;;;;;;;5055383;28;20111;-72
2023/03/14 13:09:37;;;;;;;5.43;3.72;;;;;;;;;;5055367;28;20387;-72
2023/03/14 13:12:07;;;;;;;3.15;2.65;;;;;;;;;;5051101;28;20072;-73
2023/03/14 13:14:32;;;;;;;3.40;2.83;;;;;;;;;;5037367;28;20037;-72
2023/03/14 13:17:02;;;;;;;4.78;3.05;;;;;;;;;;5055016;28;20107;-72
2023/03/14 13:19:28;;;;;;;2.63;2.25;;;;;;;;;;5054848;28;20080;-72
2023/03/14 13:21:59;;;;;;;2.92;2.28;;;;;;;;;;5054969;28;20044;-72
2023/03/14 13:24:25;;;;;;;4.53;3.20;;;;;;;;;;5053837;28;20044;-72
2023/03/14 13:26:53;;;;;;;5.63;2.53;;;;;;;;;;5054930;28;20029;-72
2023/03/14 13:29:20;;;;;;;6.60;3.03;;;;;;;;;;5054863;28;20391;-72
2023/03/14 13:31:49;;;;;;;3.50;2.60;;;;;;;;;;5054932;28;20075;-72
2023/03/14 13:34:15;;;;;;;2.60;2.40;;;;;;;;;;5054943;28;20041;-72
2023/03/14 13:36:40;;;;;;;3.05;2.50;;;;;;;;;;5054761;28;20116;-72
2023/03/14 13:39:24;;;;;;;3.08;2.72;;;;;;;;;;5054649;28;20471;-72
2023/03/14 13:41:49;;;;;;;4.50;2.38;;;;;;;;;;5054631;28;20083;-72
2023/03/14 13:44:35;;;;;;;4.30;2.53;;;;;;;;;;5054514;28;20036;-72
2023/03/14 13:47:01;;;;;;;5.38;2.35;;;;;;;;;;5053949;28;20399;-72
2023/03/14 13:49:28;;;;;;;3.75;2.38;;;;;;;;;;5054344;28;20025;-72
2023/03/14 13:51:54;;;;;;;3.42;2.58;;;;;;;;;;5054380;28;20033;-72
2023/03/14 13:54:20;;;;;;;2.78;2.50;;;;;;;;;;5054340;28;20044;-72
2023/03/14 13:56:46;;;;;;;2.72;2.40;;;;;;;;;;5054287;28;20029;-72
2023/03/14 13:59:21;;;;;;;4.85;2.92;;;;;;;;;;5054260;28;20407;-72
2023/03/14 14:01:47;;;;;;;5.18;3.33;;;;;;;;;;5036290;28;20471;-72
2023/03/14 14:04:18;;;;;;;6.07;3.80;;;;;;;;;;5054063;28;20029;-72
2023/03/14 14:06:49;;;;;;;3.70;2.63;;;;;;;;;;5054167;28;20071;-72
2023/03/14 14:09:20;;;;;;;3.95;3.10;;;;;;;;;;5054164;28;20051;-72
2023/03/14 14:11:48;;;;;;;2.92;2.63;;;;;;;;;;5054047;28;20123;-72
2023/03/14 14:14:18;;;;;;;1.50;1.40;;;;;;;;;;5067511;22;20076;-72
2023/03/14 14:16:44;;;;;;;3.95;2.10;;;;;;;;;;5116929;22;20090;-72
2023/03/14 14:19:10;;;;;;;3.05;2.40;;;;;;;;;;5092720;22;21102;-72
2023/03/14 14:21:35;;;;;;;3.72;2.75;;;;;;;;;;5076151;22;20053;-72
2023/03/14 14:24:01;;;;;;;3.83;2.40;;;;;;;;;;5073802;28;20025;-63
2023/03/14 14:26:26;;;;;;;3.00;2.67;;;;;;;;;;5074407;28;20033;-63
2023/03/14 14:28:59;;;;;;;6.45;3.65;;;;;;;;;;5074095;28;20024;-64
2023/03/14 14:31:24;;;;;;;3.22;2.92;;;;;;;;;;5073926;28;20024;-63
2023/03/14 14:33:55;;;;;;;3.13;2.47;;;;;;;;;;5073582;28;20435;-63
2023/03/14 14:36:21;;;;;;;3.55;2.42;;;;;;;;;;5073982;28;20474;-63
2023/03/14 14:38:53;;;;;;;4.28;2.97;;;;;;;;;;5073363;28;20064;-63
2023/03/14 14:41:19;;;;;;;3.95;2.55;;;;;;;;;;5073463;28;20458;-63
2023/03/14 14:43:45;;;;;;;3.03;2.63;;;;;;;;;;5072863;28;20038;-63
2023/03/14 14:46:16;;;;;;;3.38;2.65;;;;;;;;;;5054556;28;20513;-63
2023/03/14 14:48:41;;;;;;;2.95;2.50;;;;;;;;;;5072103;28;20425;-63